sensor_id;sensor_type;location;lat;lon;timestamp;pressure;altitude;pressure_sealevel;temperature;humidity
56912;BME280;42800;53.928;27.662;2022-11-15T00:00:14;100185.81;;;2.65;100.00
56912;BME280;42800;53.928;27.662;2022-11-15T00:02:40;100174.00;;;2.26;100.00
56912;BME280;42800;53.928;27.662;2022-11-15T00:05:06;100190.25;;;2.55;100.00
56912;BME280;42800;53.928;27.662;2022-11-15T00:07:33;100183.34;;;2.44;100.00
56912;BME280;42800;53.928;27.662;2022-11-15T00:09:59;100193.72;;;2.61;100.00
56912;BME280;42800;53.928;27.662;2022-11-15T00:12:27;100181.97;;;2.47;100.00
56912;BME280;42800;53.928;27.662;2022-11-15T00:14:53;100193.56;;;2.18;100.00
56912;BME280;42800;53.928;27.662;2022-11-15T00:17:20;100185.59;;;2.32;100.00
56912;BME280;42800;53.928;27.662;2022-11-15T00:19:46;100195.56;;;2.07;100.00
56912;BME280;42800;53.928;27.662;2022-11-15T00:22:12;100196.19;;;2.57;100.00
56912;BME280;42800;53.928;27.662;2022-11-15T00:24:39;100186.16;;;2.58;100.00
56912;BME280;42800;53.928;27.662;2022-11-15T00:27:05;100185.94;;;2.78;100.00
56912;BME280;42800;53.928;27.662;2022-11-15T00:29:31;100179.56;;;2.93;100.00
56912;BME280;42800;53.928;27.662;2022-11-15T00:31:57;100173.97;;;2.02;100.00
56912;BME280;42800;53.928;27.662;2022-11-15T00:34:24;100190.66;;;2.68;100.00
56912;BME280;42800;53.928;27.662;2022-11-15T00:36:51;100175.97;;;2.98;100.00
56912;BME280;42800;53.928;27.662;2022-11-15T00:39:17;100137.53;;;2.96;100.00
56912;BME280;42800;53.928;27.662;2022-11-15T00:41:43;100125.19;;;2.36;100.00
56912;BME280;42800;53.928;27.662;2022-11-15T00:44:09;100150.44;;;2.32;100.00
56912;BME280;42800;53.928;27.662;2022-11-15T00:46:36;100147.22;;;2.78;100.00
56912;BME280;42800;53.928;27.662;2022-11-15T00:49:02;100132.44;;;2.70;100.00
56912;BME280;42800;53.928;27.662;2022-11-15T00:51:29;100135.09;;;2.22;100.00
56912;BME280;42800;53.928;27.662;2022-11-15T00:53:55;100138.78;;;2.61;100.00
56912;BME280;42800;53.928;27.662;2022-11-15T00:56:22;100139.50;;;2.42;100.00
56912;BME280;42800;53.928;27.662;2022-11-15T00:58:48;100143.81;;;2.43;100.00
56912;BME280;42800;53.928;27.662;2022-11-15T01:01:14;100153.09;;;2.61;100.00
56912;BME280;42800;53.928;27.662;2022-11-15T01:03:41;100140.16;;;2.29;100.00
56912;BME280;42800;53.928;27.662;2022-11-15T01:06:08;100144.63;;;2.44;100.00
56912;BME280;42800;53.928;27.662;2022-11-15T01:08:36;100155.69;;;2.71;100.00
56912;BME280;42800;53.928;27.662;2022-11-15T01:11:04;100142.06;;;2.57;100.00
56912;BME280;42800;53.928;27.662;2022-11-15T01:13:31;100136.22;;;2.69;100.00
56912;BME280;42800;53.928;27.662;2022-11-15T01:15:58;100134.03;;;2.23;100.00
56912;BME280;42800;53.928;27.662;2022-11-15T01:18:24;100145.91;;;1.59;100.00
56912;BME280;42800;53.928;27.662;2022-11-15T01:20:50;100133.09;;;1.70;100.00
56912;BME280;42800;53.928;27.662;2022-11-15T01:23:16;100119.84;;;1.73;100.00
56912;BME280;42800;53.928;27.662;2022-11-15T01:25:43;100104.84;;;1.91;100.00
56912;BME280;42800;53.928;27.662;2022-11-15T01:28:10;100091.25;;;1.96;100.00
56912;BME280;42800;53.928;27.662;2022-11-15T01:30:36;100082.09;;;2.21;100.00
56912;BME280;42800;53.928;27.662;2022-11-15T01:33:02;100091.31;;;2.44;100.00
56912;BME280;42800;53.928;27.662;2022-11-15T01:35:29;100106.22;;;2.18;100.00
56912;BME280;42800;53.928;27.662;2022-11-15T01:37:55;100104.28;;;2.47;100.00
56912;BME280;42800;53.928;27.662;2022-11-15T01:40:21;100096.09;;;1.70;100.00
56912;BME280;42800;53.928;27.662;2022-11-15T01:42:48;100083.00;;;1.82;100.00
56912;BME280;42800;53.928;27.662;2022-11-15T01:45:15;100083.44;;;1.95;100.00
56912;BME280;42800;53.928;27.662;2022-11-15T01:47:45;100079.75;;;1.51;100.00
56912;BME280;42800;53.928;27.662;2022-11-15T01:50:15;100058.00;;;1.32;100.00
56912;BME280;42800;53.928;27.662;2022-11-15T01:52:43;100041.13;;;1.51;100.00
56912;BME280;42800;53.928;27.662;2022-11-15T01:55:11;100022.59;;;1.63;100.00
56912;BME280;42800;53.928;27.662;2022-11-15T01:57:41;100017.72;;;1.70;100.00
56912;BME280;42800;53.928;27.662;2022-11-15T02:00:11;100006.91;;;2.18;100.00
56912;BME280;42800;53.928;27.662;2022-11-15T02:02:37;100021.72;;;1.73;100.00
56912;BME280;42800;53.928;27.662;2022-11-15T02:05:05;100021.81;;;1.92;100.00
56912;BME280;42800;53.928;27.662;2022-11-15T02:07:32;100040.69;;;1.97;100.00
56912;BME280;42800;53.928;27.662;2022-11-15T02:10:04;100042.66;;;2.15;100.00
56912;BME280;42800;53.928;27.662;2022-11-15T02:12:33;100051.78;;;2.19;100.00
56912;BME280;42800;53.928;27.662;2022-11-15T02:15:00;100052.25;;;2.26;100.00
56912;BME280;42800;53.928;27.662;2022-11-15T02:17:40;100054.22;;;1.68;100.00
56912;BME280;42800;53.928;27.662;2022-11-15T02:20:34;100036.47;;;2.09;100.00
56912;BME280;42800;53.928;27.662;2022-11-15T02:26:24;100043.09;;;1.69;100.00
56912;BME280;42800;53.928;27.662;2022-11-15T02:29:01;100039.47;;;1.84;100.00
56912;BME280;42800;53.928;27.662;2022-11-15T02:31:36;100037.84;;;1.54;100.00
56912;BME280;42800;53.928;27.662;2022-11-15T02:34:14;100040.44;;;1.30;100.00
56912;BME280;42800;53.928;27.662;2022-11-15T02:36:49;100017.78;;;1.26;100.00
56912;BME280;42800;53.928;27.662;2022-11-15T02:39:27;99982.31;;;1.67;100.00
56912;BME280;42800;53.928;27.662;2022-11-15T02:41:58;99991.69;;;1.45;100.00
56912;BME280;42800;53.928;27.662;2022-11-15T02:44:31;99966.13;;;1.37;100.00
56912;BME280;42800;53.928;27.662;2022-11-15T02:47:02;99946.63;;;1.11;100.00
56912;BME280;42800;53.928;27.662;2022-11-15T02:49:41;99908.53;;;1.66;100.00
56912;BME280;42800;53.928;27.662;2022-11-15T02:52:08;99921.56;;;1.35;100.00
56912;BME280;42800;53.928;27.662;2022-11-15T02:54:34;99909.72;;;1.31;100.00
56912;BME280;42800;53.928;27.662;2022-11-15T02:57:03;99896.50;;;1.77;100.00
56912;BME280;42800;53.928;27.662;2022-11-15T02:59:53;99916.50;;;1.52;100.00
56912;BME280;42800;53.928;27.662;2022-11-15T03:02:36;99930.78;;;1.58;100.00
56912;BME280;42800;53.928;27.662;2022-11-15T03:05:15;99936.94;;;2.11;100.00
56912;BME280;42800;53.928;27.662;2022-11-15T03:07:50;99967.88;;;1.76;100.00
56912;BME280;42800;53.928;27.662;2022-11-15T03:10:23;99983.97;;;1.33;100.00
56912;BME280;42800;53.928;27.662;2022-11-15T03:12:55;99956.38;;;1.07;100.00
56912;BME280;42800;53.928;27.662;2022-11-15T03:15:28;99934.34;;;1.24;100.00
56912;BME280;42800;53.928;27.662;2022-11-15T03:18:00;99919.56;;;1.70;100.00
56912;BME280;42800;53.928;27.662;2022-11-15T03:20:29;99923.97;;;1.07;100.00
56912;BME280;42800;53.928;27.662;2022-11-15T03:23:01;99900.25;;;0.99;100.00
56912;BME280;42800;53.928;27.662;2022-11-15T03:25:29;99880.22;;;1.05;100.00
56912;BME280;42800;53.928;27.662;2022-11-15T03:27:58;99860.69;;;1.42;100.00
56912;BME280;42800;53.928;27.662;2022-11-15T03:30:28;99863.22;;;1.05;100.00
56912;BME280;42800;53.928;27.662;2022-11-15T03:32:57;99854.38;;;0.70;100.00
56912;BME280;42800;53.928;27.662;2022-11-15T03:35:27;99826.59;;;0.64;100.00
56912;BME280;42800;53.928;27.662;2022-11-15T03:38:00;99803.25;;;1.32;100.00
56912;BME280;42800;53.928;27.662;2022-11-15T03:40:36;99817.16;;;1.68;100.00
56912;BME280;42800;53.928;27.662;2022-11-15T03:43:08;99851.84;;;1.80;100.00
56912;BME280;42800;53.928;27.662;2022-11-15T03:45:41;99886.84;;;1.71;100.00
56912;BME280;42800;53.928;27.662;2022-11-15T03:48:13;99908.03;;;1.64;100.00
56912;BME280;42800;53.928;27.662;2022-11-15T03:50:41;99921.88;;;1.57;100.00
56912;BME280;42800;53.928;27.662;2022-11-15T03:53:07;99923.59;;;1.72;100.00
56912;BME280;42800;53.928;27.662;2022-11-15T03:55:34;99927.97;;;1.68;100.00
56912;BME280;42800;53.928;27.662;2022-11-15T03:58:01;99941.16;;;1.46;100.00
56912;BME280;42800;53.928;27.662;2022-11-15T04:00:27;99930.19;;;1.37;100.00
56912;BME280;42800;53.928;27.662;2022-11-15T04:02:54;99927.59;;;1.27;100.00
56912;BME280;42800;53.928;27.662;2022-11-15T04:05:21;99902.63;;;1.06;100.00
56912;BME280;42800;53.928;27.662;2022-11-15T04:07:50;99880.56;;;0.99;100.00
56912;BME280;42800;53.928;27.662;2022-11-15T04:10:16;99855.66;;;1.07;100.00
56912;BME280;42800;53.928;27.662;2022-11-15T04:12:44;99845.25;;;1.19;100.00
56912;BME280;42800;53.928;27.662;2022-11-15T04:15:17;99832.84;;;1.18;100.00
56912;BME280;42800;53.928;27.662;2022-11-15T04:17:45;99818.03;;;0.86;100.00
56912;BME280;42800;53.928;27.662;2022-11-15T04:20:15;99792.09;;;0.90;100.00
56912;BME280;42800;53.928;27.662;2022-11-15T04:23:04;99762.19;;;1.11;100.00
56912;BME280;42800;53.928;27.662;2022-11-15T04:25:51;99750.19;;;1.41;100.00
56912;BME280;42800;53.928;27.662;2022-11-15T04:28:18;99758.94;;;1.33;100.00
56912;BME280;42800;53.928;27.662;2022-11-15T04:30:45;99770.75;;;1.18;100.00
56912;BME280;42800;53.928;27.662;2022-11-15T04:33:11;99772.78;;;1.02;100.00
56912;BME280;42800;53.928;27.662;2022-11-15T04:35:37;99762.75;;;1.32;100.00
56912;BME280;42800;53.928;27.662;2022-11-15T04:38:06;99774.28;;;1.37;100.00
56912;BME280;42800;53.928;27.662;2022-11-15T04:40:32;99793.44;;;1.41;100.00
56912;BME280;42800;53.928;27.662;2022-11-15T04:42:59;99793.47;;;1.12;100.00
56912;BME280;42800;53.928;27.662;2022-11-15T04:45:25;99787.06;;;1.08;100.00
56912;BME280;42800;53.928;27.662;2022-11-15T04:47:51;99781.75;;;1.22;100.00
56912;BME280;42800;53.928;27.662;2022-11-15T04:50:18;99786.13;;;1.17;100.00
56912;BME280;42800;53.928;27.662;2022-11-15T04:52:50;99783.31;;;1.52;100.00
56912;BME280;42800;53.928;27.662;2022-11-15T04:55:18;99798.00;;;1.16;100.00
56912;BME280;42800;53.928;27.662;2022-11-15T04:57:44;99786.56;;;1.49;100.00
56912;BME280;42800;53.928;27.662;2022-11-15T05:00:15;99779.50;;;1.53;100.00
56912;BME280;42800;53.928;27.662;2022-11-15T05:02:42;99797.13;;;1.69;100.00
56912;BME280;42800;53.928;27.662;2022-11-15T05:05:26;99809.84;;;1.69;100.00
56912;BME280;42800;53.928;27.662;2022-11-15T05:07:53;99810.16;;;2.05;100.00
56912;BME280;42800;53.928;27.662;2022-11-15T05:10:20;99820.53;;;1.98;100.00
56912;BME280;42800;53.928;27.662;2022-11-15T05:12:46;99826.72;;;1.79;100.00
56912;BME280;42800;53.928;27.662;2022-11-15T05:15:13;99822.94;;;1.37;100.00
56912;BME280;42800;53.928;27.662;2022-11-15T05:17:39;99809.38;;;1.61;100.00
56912;BME280;42800;53.928;27.662;2022-11-15T05:20:06;99805.31;;;1.16;100.00
56912;BME280;42800;53.928;27.662;2022-11-15T05:22:33;99796.97;;;1.36;100.00
56912;BME280;42800;53.928;27.662;2022-11-15T05:24:59;99786.53;;;1.30;100.00
56912;BME280;42800;53.928;27.662;2022-11-15T05:27:26;99760.00;;;1.56;100.00
56912;BME280;42800;53.928;27.662;2022-11-15T05:29:52;99758.09;;;1.13;100.00
56912;BME280;42800;53.928;27.662;2022-11-15T05:32:18;99747.63;;;1.74;100.00
56912;BME280;42800;53.928;27.662;2022-11-15T05:34:45;99761.72;;;1.28;100.00
56912;BME280;42800;53.928;27.662;2022-11-15T05:37:13;99744.19;;;1.01;100.00
56912;BME280;42800;53.928;27.662;2022-11-15T05:39:39;99729.16;;;1.38;100.00
56912;BME280;42800;53.928;27.662;2022-11-15T05:42:09;99738.22;;;0.80;100.00
56912;BME280;42800;53.928;27.662;2022-11-15T05:44:37;99704.59;;;1.15;100.00
56912;BME280;42800;53.928;27.662;2022-11-15T05:47:05;99696.53;;;1.72;100.00
56912;BME280;42800;53.928;27.662;2022-11-15T05:49:35;99727.22;;;1.81;100.00
56912;BME280;42800;53.928;27.662;2022-11-15T05:52:05;99741.22;;;1.46;100.00
56912;BME280;42800;53.928;27.662;2022-11-15T05:54:34;99747.31;;;1.32;100.00
56912;BME280;42800;53.928;27.662;2022-11-15T05:57:01;99719.91;;;1.63;100.00
56912;BME280;42800;53.928;27.662;2022-11-15T05:59:29;99725.16;;;1.54;100.00
56912;BME280;42800;53.928;27.662;2022-11-15T06:01:56;99717.25;;;1.96;100.00
56912;BME280;42800;53.928;27.662;2022-11-15T06:04:23;99748.44;;;2.26;100.00
56912;BME280;42800;53.928;27.662;2022-11-15T06:06:49;99763.75;;;1.98;100.00
56912;BME280;42800;53.928;27.662;2022-11-15T06:09:15;99770.34;;;2.10;100.00
56912;BME280;42800;53.928;27.662;2022-11-15T06:11:42;99777.88;;;2.46;100.00
56912;BME280;42800;53.928;27.662;2022-11-15T06:14:08;99776.75;;;2.33;100.00
56912;BME280;42800;53.928;27.662;2022-11-15T06:16:34;99765.47;;;1.51;100.00
56912;BME280;42800;53.928;27.662;2022-11-15T06:19:01;99757.25;;;1.99;100.00
56912;BME280;42800;53.928;27.662;2022-11-15T06:21:27;99744.75;;;1.84;100.00
56912;BME280;42800;53.928;27.662;2022-11-15T06:23:54;99730.81;;;1.77;100.00
56912;BME280;42800;53.928;27.662;2022-11-15T06:26:21;99731.97;;;1.71;100.00
56912;BME280;42800;53.928;27.662;2022-11-15T06:28:47;99710.84;;;1.92;100.00
56912;BME280;42800;53.928;27.662;2022-11-15T06:31:13;99711.56;;;2.30;100.00
56912;BME280;42800;53.928;27.662;2022-11-15T06:33:40;99722.47;;;1.92;100.00
56912;BME280;42800;53.928;27.662;2022-11-15T06:36:10;99721.53;;;1.64;100.00
56912;BME280;42800;53.928;27.662;2022-11-15T06:38:39;99694.47;;;2.02;100.00
56912;BME280;42800;53.928;27.662;2022-11-15T06:41:07;99687.13;;;2.21;100.00
56912;BME280;42800;53.928;27.662;2022-11-15T06:43:34;99690.00;;;2.11;100.00
56912;BME280;42800;53.928;27.662;2022-11-15T06:46:01;99689.03;;;1.50;100.00
56912;BME280;42800;53.928;27.662;2022-11-15T06:48:28;99658.56;;;1.45;100.00
56912;BME280;42800;53.928;27.662;2022-11-15T06:50:56;99626.72;;;1.60;100.00
56912;BME280;42800;53.928;27.662;2022-11-15T06:53:23;99609.34;;;2.13;100.00
56912;BME280;42800;53.928;27.662;2022-11-15T06:55:50;99613.06;;;1.52;100.00
56912;BME280;42800;53.928;27.662;2022-11-15T06:58:17;99586.00;;;1.38;100.00
56912;BME280;42800;53.928;27.662;2022-11-15T07:00:43;99542.28;;;1.82;100.00
56912;BME280;42800;53.928;27.662;2022-11-15T07:03:10;99548.44;;;2.02;100.00
56912;BME280;42800;53.928;27.662;2022-11-15T07:05:36;99557.84;;;1.91;100.00
56912;BME280;42800;53.928;27.662;2022-11-15T07:08:03;99550.13;;;2.11;100.00
56912;BME280;42800;53.928;27.662;2022-11-15T07:10:30;99554.25;;;2.09;100.00
56912;BME280;42800;53.928;27.662;2022-11-15T07:12:56;99560.06;;;1.70;100.00
56912;BME280;42800;53.928;27.662;2022-11-15T07:15:25;99565.56;;;1.64;100.00
56912;BME280;42800;53.928;27.662;2022-11-15T07:17:51;99554.94;;;1.54;100.00
56912;BME280;42800;53.928;27.662;2022-11-15T07:20:18;99538.25;;;1.66;100.00
56912;BME280;42800;53.928;27.662;2022-11-15T07:22:44;99528.56;;;1.79;100.00
56912;BME280;42800;53.928;27.662;2022-11-15T07:25:11;99531.59;;;2.05;100.00
56912;BME280;42800;53.928;27.662;2022-11-15T07:27:38;99535.03;;;2.38;100.00
56912;BME280;42800;53.928;27.662;2022-11-15T07:30:05;99566.41;;;2.67;100.00
56912;BME280;42800;53.928;27.662;2022-11-15T07:32:32;99587.16;;;2.44;100.00
56912;BME280;42800;53.928;27.662;2022-11-15T07:34:58;99598.25;;;2.28;100.00
56912;BME280;42800;53.928;27.662;2022-11-15T07:37:24;99588.53;;;2.27;100.00
56912;BME280;42800;53.928;27.662;2022-11-15T07:39:51;99574.00;;;2.23;100.00
56912;BME280;42800;53.928;27.662;2022-11-15T07:42:17;99567.63;;;1.86;100.00
56912;BME280;42800;53.928;27.662;2022-11-15T07:45:02;99539.72;;;2.05;100.00
56912;BME280;42800;53.928;27.662;2022-11-15T07:47:29;99527.59;;;1.56;100.00
56912;BME280;42800;53.928;27.662;2022-11-15T07:49:55;99493.78;;;1.58;100.00
56912;BME280;42800;53.928;27.662;2022-11-15T07:52:22;99466.06;;;1.67;100.00
56912;BME280;42800;53.928;27.662;2022-11-15T07:54:48;99442.66;;;1.62;100.00
56912;BME280;42800;53.928;27.662;2022-11-15T07:57:14;99416.19;;;1.45;100.00
56912;BME280;42800;53.928;27.662;2022-11-15T07:59:40;99378.56;;;1.76;100.00
56912;BME280;42800;53.928;27.662;2022-11-15T08:02:09;99373.50;;;1.75;100.00
56912;BME280;42800;53.928;27.662;2022-11-15T08:04:35;99358.22;;;2.06;100.00
56912;BME280;42800;53.928;27.662;2022-11-15T08:07:01;99347.56;;;2.24;100.00
56912;BME280;42800;53.928;27.662;2022-11-15T08:09:28;99362.16;;;1.86;100.00
56912;BME280;42800;53.928;27.662;2022-11-15T08:11:54;99352.06;;;2.28;100.00
56912;BME280;42800;53.928;27.662;2022-11-15T08:14:20;99347.75;;;1.91;100.00
56912;BME280;42800;53.928;27.662;2022-11-15T08:16:47;99350.78;;;2.12;100.00
56912;BME280;42800;53.928;27.662;2022-11-15T08:19:14;99339.53;;;1.82;100.00
56912;BME280;42800;53.928;27.662;2022-11-15T08:21:40;99325.75;;;1.70;100.00
56912;BME280;42800;53.928;27.662;2022-11-15T08:24:09;99310.31;;;1.71;100.00
56912;BME280;42800;53.928;27.662;2022-11-15T08:26:36;99301.63;;;1.74;100.00
56912;BME280;42800;53.928;27.662;2022-11-15T08:29:02;99275.84;;;1.90;100.00
56912;BME280;42800;53.928;27.662;2022-11-15T08:31:28;99275.63;;;2.23;100.00
56912;BME280;42800;53.928;27.662;2022-11-15T08:33:55;99286.75;;;2.21;100.00
56912;BME280;42800;53.928;27.662;2022-11-15T08:36:22;99290.59;;;2.06;100.00
56912;BME280;42800;53.928;27.662;2022-11-15T08:38:49;99279.06;;;2.59;100.00
56912;BME280;42800;53.928;27.662;2022-11-15T08:41:19;99293.06;;;2.30;100.00
56912;BME280;42800;53.928;27.662;2022-11-15T08:43:50;99303.00;;;2.21;100.00
56912;BME280;42800;53.928;27.662;2022-11-15T08:46:16;99303.53;;;2.09;100.00
56912;BME280;42800;53.928;27.662;2022-11-15T08:48:43;99279.47;;;2.44;100.00
56912;BME280;42800;53.928;27.662;2022-11-15T08:51:10;99296.56;;;1.95;100.00
56912;BME280;42800;53.928;27.662;2022-11-15T08:53:37;99287.44;;;2.49;100.00
56912;BME280;42800;53.928;27.662;2022-11-15T08:56:06;99295.81;;;2.62;100.00
56912;BME280;42800;53.928;27.662;2022-11-15T08:58:33;99299.88;;;2.50;100.00
56912;BME280;42800;53.928;27.662;2022-11-15T09:00:59;99308.78;;;2.51;100.00
56912;BME280;42800;53.928;27.662;2022-11-15T09:03:26;99319.91;;;2.49;100.00
56912;BME280;42800;53.928;27.662;2022-11-15T09:05:54;99321.19;;;2.07;100.00
56912;BME280;42800;53.928;27.662;2022-11-15T09:08:21;99302.84;;;2.40;100.00
56912;BME280;42800;53.928;27.662;2022-11-15T09:10:48;99286.63;;;2.49;100.00
56912;BME280;42800;53.928;27.662;2022-11-15T09:13:15;99288.28;;;2.81;100.00
56912;BME280;42800;53.928;27.662;2022-11-15T09:15:41;99271.34;;;2.67;100.00
56912;BME280;42800;53.928;27.662;2022-11-15T09:18:07;99275.88;;;2.57;100.00
56912;BME280;42800;53.928;27.662;2022-11-15T09:20:34;99279.69;;;2.11;100.00
56912;BME280;42800;53.928;27.662;2022-11-15T09:23:00;99254.97;;;2.49;100.00
56912;BME280;42800;53.928;27.662;2022-11-15T09:25:27;99253.34;;;2.71;100.00
56912;BME280;42800;53.928;27.662;2022-11-15T09:27:54;99268.78;;;3.01;100.00
56912;BME280;42800;53.928;27.662;2022-11-15T09:30:20;99290.22;;;2.35;100.00
56912;BME280;42800;53.928;27.662;2022-11-15T09:32:47;99282.63;;;2.46;100.00
56912;BME280;42800;53.928;27.662;2022-11-15T09:35:13;99270.22;;;2.68;100.00
56912;BME280;42800;53.928;27.662;2022-11-15T09:37:39;99266.03;;;2.93;100.00
56912;BME280;42800;53.928;27.662;2022-11-15T09:40:09;99283.81;;;3.08;100.00
56912;BME280;42800;53.928;27.662;2022-11-15T09:42:47;99305.69;;;2.89;100.00
56912;BME280;42800;53.928;27.662;2022-11-15T09:45:23;99296.72;;;3.11;100.00
56912;BME280;42800;53.928;27.662;2022-11-15T09:48:04;99305.16;;;2.78;100.00
56912;BME280;42800;53.928;27.662;2022-11-15T09:50:37;99295.94;;;3.10;100.00
56912;BME280;42800;53.928;27.662;2022-11-15T09:53:04;99285.94;;;3.28;100.00
56912;BME280;42800;53.928;27.662;2022-11-15T09:55:36;99298.81;;;3.14;100.00
56912;BME280;42800;53.928;27.662;2022-11-15T09:58:10;99279.72;;;3.27;100.00
56912;BME280;42800;53.928;27.662;2022-11-15T10:00:44;99293.63;;;3.35;100.00
56912;BME280;42800;53.928;27.662;2022-11-15T10:03:15;99299.75;;;3.58;100.00
56912;BME280;42800;53.928;27.662;2022-11-15T10:05:43;99311.63;;;3.88;100.00
56912;BME280;42800;53.928;27.662;2022-11-15T10:08:24;99345.31;;;4.04;100.00
56912;BME280;42800;53.928;27.662;2022-11-15T10:10:56;99364.94;;;4.01;100.00
56912;BME280;42800;53.928;27.662;2022-11-15T10:13:23;99386.59;;;3.84;100.00
56912;BME280;42800;53.928;27.662;2022-11-15T10:15:53;99374.97;;;3.92;100.00
56912;BME280;42800;53.928;27.662;2022-11-15T10:18:26;99374.34;;;3.95;100.00
56912;BME280;42800;53.928;27.662;2022-11-15T10:20:59;99380.34;;;3.74;100.00
56912;BME280;42800;53.928;27.662;2022-11-15T10:23:27;99365.25;;;3.99;100.00
56912;BME280;42800;53.928;27.662;2022-11-15T10:25:55;99376.69;;;3.39;100.00
56912;BME280;42800;53.928;27.662;2022-11-15T10:28:26;99346.22;;;3.73;100.00
56912;BME280;42800;53.928;27.662;2022-11-15T10:30:55;99352.63;;;3.38;100.00
56912;BME280;42800;53.928;27.662;2022-11-15T10:33:26;99320.03;;;3.60;100.00
56912;BME280;42800;53.928;27.662;2022-11-15T10:36:14;99323.91;;;4.03;100.00
56912;BME280;42800;53.928;27.662;2022-11-15T10:38:52;99330.75;;;3.83;100.00
56912;BME280;42800;53.928;27.662;2022-11-15T10:41:20;99304.84;;;3.50;100.00
56912;BME280;42800;53.928;27.662;2022-11-15T10:44:03;99281.22;;;3.42;100.00
56912;BME280;42800;53.928;27.662;2022-11-15T10:46:35;99249.38;;;3.83;100.00
56912;BME280;42800;53.928;27.662;2022-11-15T10:49:12;99249.06;;;3.93;100.00
56912;BME280;42800;53.928;27.662;2022-11-15T10:51:42;99251.63;;;3.72;100.00
56912;BME280;42800;53.928;27.662;2022-11-15T10:54:10;99237.56;;;3.61;100.00
56912;BME280;42800;53.928;27.662;2022-11-15T10:56:39;99229.44;;;3.78;100.00
56912;BME280;42800;53.928;27.662;2022-11-15T10:59:15;99230.41;;;3.83;100.00
56912;BME280;42800;53.928;27.662;2022-11-15T11:01:46;99224.03;;;3.78;100.00
56912;BME280;42800;53.928;27.662;2022-11-15T11:04:13;99216.38;;;4.15;100.00
56912;BME280;42800;53.928;27.662;2022-11-15T11:06:46;99222.75;;;4.19;100.00
56912;BME280;42800;53.928;27.662;2022-11-15T11:09:23;99228.97;;;3.85;100.00
56912;BME280;42800;53.928;27.662;2022-11-15T11:11:53;99217.50;;;3.71;100.00
56912;BME280;42800;53.928;27.662;2022-11-15T11:14:21;99222.44;;;3.60;100.00
56912;BME280;42800;53.928;27.662;2022-11-15T11:16:51;99214.44;;;3.72;100.00
56912;BME280;42800;53.928;27.662;2022-11-15T11:22:25;99205.03;;;4.31;100.00
56912;BME280;42800;53.928;27.662;2022-11-15T11:25:15;99219.38;;;4.22;100.00
56912;BME280;42800;53.928;27.662;2022-11-15T11:27:52;99233.44;;;3.72;100.00
56912;BME280;42800;53.928;27.662;2022-11-15T11:30:31;99210.78;;;4.03;100.00
56912;BME280;42800;53.928;27.662;2022-11-15T11:33:12;99196.97;;;4.52;100.00
56912;BME280;42800;53.928;27.662;2022-11-15T11:35:50;99218.28;;;4.23;100.00
56912;BME280;42800;53.928;27.662;2022-11-15T11:38:30;99217.31;;;4.37;100.00
56912;BME280;42800;53.928;27.662;2022-11-15T11:41:06;99241.09;;;4.05;100.00
56912;BME280;42800;53.928;27.662;2022-11-15T11:43:40;99224.47;;;4.41;100.00
56912;BME280;42800;53.928;27.662;2022-11-15T11:46:38;99215.56;;;4.15;100.00
56912;BME280;42800;53.928;27.662;2022-11-15T11:49:10;99219.72;;;4.12;100.00
56912;BME280;42800;53.928;27.662;2022-11-15T11:51:41;99203.13;;;4.05;100.00
56912;BME280;42800;53.928;27.662;2022-11-15T11:54:13;99194.63;;;4.33;100.00
56912;BME280;42800;53.928;27.662;2022-11-15T11:56:43;99184.41;;;4.30;100.00
56912;BME280;42800;53.928;27.662;2022-11-15T11:59:15;99185.03;;;4.44;100.00
56912;BME280;42800;53.928;27.662;2022-11-15T12:01:44;99194.59;;;4.50;100.00
56912;BME280;42800;53.928;27.662;2022-11-15T12:04:17;99193.69;;;4.37;100.00
56912;BME280;42800;53.928;27.662;2022-11-15T12:06:49;99174.59;;;4.63;100.00
56912;BME280;42800;53.928;27.662;2022-11-15T12:09:20;99176.97;;;4.74;100.00
56912;BME280;42800;53.928;27.662;2022-11-15T12:11:52;99196.31;;;4.63;100.00
56912;BME280;42800;53.928;27.662;2022-11-15T12:14:27;99188.31;;;4.67;100.00
56912;BME280;42800;53.928;27.662;2022-11-15T12:16:55;99194.31;;;4.90;100.00
56912;BME280;42800;53.928;27.662;2022-11-15T12:19:22;99216.38;;;4.80;100.00
56912;BME280;42800;53.928;27.662;2022-11-15T12:21:53;99220.34;;;4.91;100.00
56912;BME280;42800;53.928;27.662;2022-11-15T12:24:27;99222.41;;;4.94;100.00
56912;BME280;42800;53.928;27.662;2022-11-15T12:26:59;99217.56;;;5.08;100.00
56912;BME280;42800;53.928;27.662;2022-11-15T12:29:31;99227.59;;;5.16;100.00
56912;BME280;42800;53.928;27.662;2022-11-15T12:32:00;99236.91;;;5.07;100.00
56912;BME280;42800;53.928;27.662;2022-11-15T12:34:42;99238.00;;;5.06;100.00
56912;BME280;42800;53.928;27.662;2022-11-15T12:37:34;99253.16;;;5.15;100.00
56912;BME280;42800;53.928;27.662;2022-11-15T12:40:36;99239.28;;;5.08;100.00
56912;BME280;42800;53.928;27.662;2022-11-15T12:46:12;99235.28;;;5.06;100.00
56912;BME280;42800;53.928;27.662;2022-11-15T12:54:53;99206.97;;;5.15;100.00
56912;BME280;42800;53.928;27.662;2022-11-15T12:57:29;99209.69;;;5.15;100.00
56912;BME280;42800;53.928;27.662;2022-11-15T12:59:58;99211.50;;;5.32;100.00
56912;BME280;42800;53.928;27.662;2022-11-15T13:02:29;99216.09;;;5.11;100.00
56912;BME280;42800;53.928;27.662;2022-11-15T13:08:01;99215.72;;;5.21;100.00
56912;BME280;42800;53.928;27.662;2022-11-15T13:10:32;99219.97;;;5.10;100.00
56912;BME280;42800;53.928;27.662;2022-11-15T13:13:00;99218.88;;;5.32;100.00
56912;BME280;42800;53.928;27.662;2022-11-15T13:15:54;99221.06;;;5.38;100.00
56912;BME280;42800;53.928;27.662;2022-11-15T13:18:42;99233.22;;;5.41;100.00